sensor_id;sensor_type;location;lat;lon;timestamp;temperature;humidity
18207;DHT22;9229;52.354;20.886;2023-03-21T00:01:00;8.60;99.90
18207;DHT22;9229;52.354;20.886;2023-03-21T00:06:08;8.60;99.90
18207;DHT22;9229;52.354;20.886;2023-03-21T00:11:12;8.60;99.90
18207;DHT22;9229;52.354;20.886;2023-03-21T00:16:16;8.50;99.90
18207;DHT22;9229;52.354;20.886;2023-03-21T00:21:20;8.50;99.90
18207;DHT22;9229;52.354;20.886;2023-03-21T00:26:29;8.50;99.90
18207;DHT22;9229;52.354;20.886;2023-03-21T00:31:31;8.50;99.90
18207;DHT22;9229;52.354;20.886;2023-03-21T00:36:33;8.50;99.90
18207;DHT22;9229;52.354;20.886;2023-03-21T00:41:37;8.50;99.90
18207;DHT22;9229;52.354;20.886;2023-03-21T00:46:39;8.40;99.90
18207;DHT22;9229;52.354;20.886;2023-03-21T00:51:42;8.40;99.90
18207;DHT22;9229;52.354;20.886;2023-03-21T00:56:46;8.40;99.90
18207;DHT22;9229;52.354;20.886;2023-03-21T01:01:48;8.30;99.90
18207;DHT22;9229;52.354;20.886;2023-03-21T01:06:53;8.30;99.90
18207;DHT22;9229;52.354;20.886;2023-03-21T01:11:57;8.30;99.90
18207;DHT22;9229;52.354;20.886;2023-03-21T01:16:59;8.20;99.90
18207;DHT22;9229;52.354;20.886;2023-03-21T01:22:01;8.20;99.90
18207;DHT22;9229;52.354;20.886;2023-03-21T01:27:05;8.10;99.90
18207;DHT22;9229;52.354;20.886;2023-03-21T01:32:08;8.10;99.90
18207;DHT22;9229;52.354;20.886;2023-03-21T01:37:10;8.10;99.90
18207;DHT22;9229;52.354;20.886;2023-03-21T01:42:22;8.10;99.90
18207;DHT22;9229;52.354;20.886;2023-03-21T01:47:24;8.00;99.90
18207;DHT22;9229;52.354;20.886;2023-03-21T01:52:39;8.00;99.90
18207;DHT22;9229;52.354;20.886;2023-03-21T01:58:02;8.10;99.90
18207;DHT22;9229;52.354;20.886;2023-03-21T02:03:08;8.00;99.90
18207;DHT22;9229;52.354;20.886;2023-03-21T02:08:24;8.00;99.90
18207;DHT22;9229;52.354;20.886;2023-03-21T02:13:28;8.00;99.90
18207;DHT22;9229;52.354;20.886;2023-03-21T02:18:37;8.00;99.90
18207;DHT22;9229;52.354;20.886;2023-03-21T02:24:06;8.00;99.90
18207;DHT22;9229;52.354;20.886;2023-03-21T02:34:54;7.90;99.90
18207;DHT22;9229;52.354;20.886;2023-03-21T02:40:11;7.90;99.90
18207;DHT22;9229;52.354;20.886;2023-03-21T02:45:17;7.90;99.90
18207;DHT22;9229;52.354;20.886;2023-03-21T02:50:32;7.90;99.90
18207;DHT22;9229;52.354;20.886;2023-03-21T02:55:39;7.90;99.90
18207;DHT22;9229;52.354;20.886;2023-03-21T03:00:44;7.90;99.90
18207;DHT22;9229;52.354;20.886;2023-03-21T03:05:57;7.90;99.90
18207;DHT22;9229;52.354;20.886;2023-03-21T03:11:11;7.90;99.90
18207;DHT22;9229;52.354;20.886;2023-03-21T03:16:24;7.90;99.90
18207;DHT22;9229;52.354;20.886;2023-03-21T03:21:36;8.00;99.90
18207;DHT22;9229;52.354;20.886;2023-03-21T03:26:47;7.90;99.90
18207;DHT22;9229;52.354;20.886;2023-03-21T03:31:56;7.80;99.90
18207;DHT22;9229;52.354;20.886;2023-03-21T03:37:07;7.80;99.90
18207;DHT22;9229;52.354;20.886;2023-03-21T03:42:14;7.80;99.90
18207;DHT22;9229;52.354;20.886;2023-03-21T03:47:24;7.80;99.90
18207;DHT22;9229;52.354;20.886;2023-03-21T03:52:32;7.80;99.90
18207;DHT22;9229;52.354;20.886;2023-03-21T03:57:45;7.80;99.90
18207;DHT22;9229;52.354;20.886;2023-03-21T04:02:47;7.70;99.90
18207;DHT22;9229;52.354;20.886;2023-03-21T04:07:54;7.80;99.90
18207;DHT22;9229;52.354;20.886;2023-03-21T04:13:08;7.80;99.90
18207;DHT22;9229;52.354;20.886;2023-03-21T04:18:19;7.80;99.90
18207;DHT22;9229;52.354;20.886;2023-03-21T04:23:23;7.80;99.90
18207;DHT22;9229;52.354;20.886;2023-03-21T04:28:27;7.80;99.90
18207;DHT22;9229;52.354;20.886;2023-03-21T04:33:38;7.80;99.90
18207;DHT22;9229;52.354;20.886;2023-03-21T04:38:40;7.70;99.90
18207;DHT22;9229;52.354;20.886;2023-03-21T04:43:44;7.70;99.90
18207;DHT22;9229;52.354;20.886;2023-03-21T04:48:47;7.70;99.90
18207;DHT22;9229;52.354;20.886;2023-03-21T04:53:49;7.70;99.90
18207;DHT22;9229;52.354;20.886;2023-03-21T04:58:53;7.70;99.90
18207;DHT22;9229;52.354;20.886;2023-03-21T05:03:56;7.70;99.90
18207;DHT22;9229;52.354;20.886;2023-03-21T05:08:59;7.80;99.90
18207;DHT22;9229;52.354;20.886;2023-03-21T05:14:09;7.80;99.90
18207;DHT22;9229;52.354;20.886;2023-03-21T05:19:12;7.70;99.90
18207;DHT22;9229;52.354;20.886;2023-03-21T05:24:17;7.80;99.90
18207;DHT22;9229;52.354;20.886;2023-03-21T05:29:25;7.80;99.90
18207;DHT22;9229;52.354;20.886;2023-03-21T05:34:32;7.80;99.90
18207;DHT22;9229;52.354;20.886;2023-03-21T05:39:36;7.90;99.90
18207;DHT22;9229;52.354;20.886;2023-03-21T05:44:46;8.00;99.90
18207;DHT22;9229;52.354;20.886;2023-03-21T05:49:49;8.10;99.90
18207;DHT22;9229;52.354;20.886;2023-03-21T05:54:52;8.10;99.90
18207;DHT22;9229;52.354;20.886;2023-03-21T06:00:02;8.20;99.90
18207;DHT22;9229;52.354;20.886;2023-03-21T06:05:16;8.10;99.90
18207;DHT22;9229;52.354;20.886;2023-03-21T06:10:18;8.10;99.90
18207;DHT22;9229;52.354;20.886;2023-03-21T06:15:24;8.10;99.90
18207;DHT22;9229;52.354;20.886;2023-03-21T06:20:38;8.10;99.90
18207;DHT22;9229;52.354;20.886;2023-03-21T06:25:47;8.10;99.90
18207;DHT22;9229;52.354;20.886;2023-03-21T06:30:51;8.20;99.90
18207;DHT22;9229;52.354;20.886;2023-03-21T06:35:59;8.10;99.90
18207;DHT22;9229;52.354;20.886;2023-03-21T06:41:03;8.20;99.90
18207;DHT22;9229;52.354;20.886;2023-03-21T06:46:14;8.20;99.90
18207;DHT22;9229;52.354;20.886;2023-03-21T06:51:17;8.30;99.90
18207;DHT22;9229;52.354;20.886;2023-03-21T06:56:46;8.40;99.90
18207;DHT22;9229;52.354;20.886;2023-03-21T07:01:57;8.50;99.90
18207;DHT22;9229;52.354;20.886;2023-03-21T07:07:00;8.60;99.90
18207;DHT22;9229;52.354;20.886;2023-03-21T07:12:05;8.60;99.90
18207;DHT22;9229;52.354;20.886;2023-03-21T07:17:25;8.80;99.90
18207;DHT22;9229;52.354;20.886;2023-03-21T07:22:32;9.00;99.90
18207;DHT22;9229;52.354;20.886;2023-03-21T07:27:34;9.30;99.90
18207;DHT22;9229;52.354;20.886;2023-03-21T07:32:39;9.60;99.90
18207;DHT22;9229;52.354;20.886;2023-03-21T07:37:41;9.70;99.90
18207;DHT22;9229;52.354;20.886;2023-03-21T07:42:48;9.70;99.90
18207;DHT22;9229;52.354;20.886;2023-03-21T07:48:04;9.80;99.90
18207;DHT22;9229;52.354;20.886;2023-03-21T07:53:08;9.90;99.90
18207;DHT22;9229;52.354;20.886;2023-03-21T07:58:10;10.10;99.90
18207;DHT22;9229;52.354;20.886;2023-03-21T08:03:14;10.00;99.90
18207;DHT22;9229;52.354;20.886;2023-03-21T08:08:16;9.90;99.90
18207;DHT22;9229;52.354;20.886;2023-03-21T08:13:19;10.00;99.90
18207;DHT22;9229;52.354;20.886;2023-03-21T08:18:27;10.00;99.90
18207;DHT22;9229;52.354;20.886;2023-03-21T08:23:29;10.30;99.90
18207;DHT22;9229;52.354;20.886;2023-03-21T08:28:31;10.70;99.90
18207;DHT22;9229;52.354;20.886;2023-03-21T08:33:35;10.80;99.90
18207;DHT22;9229;52.354;20.886;2023-03-21T08:38:41;11.00;99.90
18207;DHT22;9229;52.354;20.886;2023-03-21T08:43:48;11.10;99.90
18207;DHT22;9229;52.354;20.886;2023-03-21T08:48:52;10.80;99.90
18207;DHT22;9229;52.354;20.886;2023-03-21T08:53:54;10.50;99.90
18207;DHT22;9229;52.354;20.886;2023-03-21T08:58:57;10.50;99.90
18207;DHT22;9229;52.354;20.886;2023-03-21T09:04:04;10.30;99.90
18207;DHT22;9229;52.354;20.886;2023-03-21T09:09:12;10.40;99.90
18207;DHT22;9229;52.354;20.886;2023-03-21T09:14:15;10.70;99.90
18207;DHT22;9229;52.354;20.886;2023-03-21T09:19:19;10.80;99.90
18207;DHT22;9229;52.354;20.886;2023-03-21T09:24:22;10.90;99.90
18207;DHT22;9229;52.354;20.886;2023-03-21T09:29:24;11.20;99.90
18207;DHT22;9229;52.354;20.886;2023-03-21T09:34:30;11.40;99.90
18207;DHT22;9229;52.354;20.886;2023-03-21T09:39:32;11.40;99.90
18207;DHT22;9229;52.354;20.886;2023-03-21T09:44:43;11.20;99.90
18207;DHT22;9229;52.354;20.886;2023-03-21T09:49:54;11.00;99.90
18207;DHT22;9229;52.354;20.886;2023-03-21T09:54:59;11.10;99.90
18207;DHT22;9229;52.354;20.886;2023-03-21T10:00:05;11.10;99.90
18207;DHT22;9229;52.354;20.886;2023-03-21T10:05:19;11.10;99.90
18207;DHT22;9229;52.354;20.886;2023-03-21T10:10:24;11.10;99.90
18207;DHT22;9229;52.354;20.886;2023-03-21T10:15:29;11.20;99.90
18207;DHT22;9229;52.354;20.886;2023-03-21T10:20:35;11.60;99.90
18207;DHT22;9229;52.354;20.886;2023-03-21T10:25:40;11.60;99.90
18207;DHT22;9229;52.354;20.886;2023-03-21T10:30:47;11.60;99.90
18207;DHT22;9229;52.354;20.886;2023-03-21T10:35:55;11.70;99.90
18207;DHT22;9229;52.354;20.886;2023-03-21T10:40:59;11.80;99.90
18207;DHT22;9229;52.354;20.886;2023-03-21T10:46:07;12.10;99.90
18207;DHT22;9229;52.354;20.886;2023-03-21T10:51:16;12.50;99.90
18207;DHT22;9229;52.354;20.886;2023-03-21T10:56:23;12.70;99.90
18207;DHT22;9229;52.354;20.886;2023-03-21T11:01:33;13.20;99.90
18207;DHT22;9229;52.354;20.886;2023-03-21T11:06:43;13.80;99.90
18207;DHT22;9229;52.354;20.886;2023-03-21T11:11:51;14.20;99.90
18207;DHT22;9229;52.354;20.886;2023-03-21T11:16:55;14.40;99.90
18207;DHT22;9229;52.354;20.886;2023-03-21T11:22:02;15.00;99.90
18207;DHT22;9229;52.354;20.886;2023-03-21T11:27:05;14.90;99.90
18207;DHT22;9229;52.354;20.886;2023-03-21T11:32:10;14.30;99.90
18207;DHT22;9229;52.354;20.886;2023-03-21T11:37:20;13.50;99.90
18207;DHT22;9229;52.354;20.886;2023-03-21T11:42:28;12.80;99.90
18207;DHT22;9229;52.354;20.886;2023-03-21T11:47:30;12.30;99.90
18207;DHT22;9229;52.354;20.886;2023-03-21T11:52:39;11.90;99.90
18207;DHT22;9229;52.354;20.886;2023-03-21T11:57:47;11.80;99.90
18207;DHT22;9229;52.354;20.886;2023-03-21T12:03:20;11.80;99.90
18207;DHT22;9229;52.354;20.886;2023-03-21T12:08:37;11.80;99.90
18207;DHT22;9229;52.354;20.886;2023-03-21T12:13:50;11.90;99.90
18207;DHT22;9229;52.354;20.886;2023-03-21T12:19:03;12.30;99.90
18207;DHT22;9229;52.354;20.886;2023-03-21T12:24:17;12.80;99.90
18207;DHT22;9229;52.354;20.886;2023-03-21T12:29:41;13.20;99.90
18207;DHT22;9229;52.354;20.886;2023-03-21T12:35:05;13.60;99.90
18207;DHT22;9229;52.354;20.886;2023-03-21T12:40:20;13.30;99.90
18207;DHT22;9229;52.354;20.886;2023-03-21T12:45:26;12.70;99.90
18207;DHT22;9229;52.354;20.886;2023-03-21T12:50:33;12.70;99.90
18207;DHT22;9229;52.354;20.886;2023-03-21T12:55:39;13.10;99.90
18207;DHT22;9229;52.354;20.886;2023-03-21T13:00:43;13.40;99.90
18207;DHT22;9229;52.354;20.886;2023-03-21T13:05:48;13.30;99.90
18207;DHT22;9229;52.354;20.886;2023-03-21T13:10:53;13.30;99.90
18207;DHT22;9229;52.354;20.886;2023-03-21T13:16:08;13.10;99.90
18207;DHT22;9229;52.354;20.886;2023-03-21T13:21:17;13.30;99.90
18207;DHT22;9229;52.354;20.886;2023-03-21T13:26:31;13.50;99.90
18207;DHT22;9229;52.354;20.886;2023-03-21T13:31:35;13.80;99.90
18207;DHT22;9229;52.354;20.886;2023-03-21T13:36:38;14.00;99.90
18207;DHT22;9229;52.354;20.886;2023-03-21T13:41:44;13.50;99.90
18207;DHT22;9229;52.354;20.886;2023-03-21T13:46:59;13.10;99.90
18207;DHT22;9229;52.354;20.886;2023-03-21T13:52:24;12.90;99.90
18207;DHT22;9229;52.354;20.886;2023-03-21T13:57:38;12.90;99.90
18207;DHT22;9229;52.354;20.886;2023-03-21T14:02:51;12.70;99.90
18207;DHT22;9229;52.354;20.886;2023-03-21T14:07:57;12.30;99.90
18207;DHT22;9229;52.354;20.886;2023-03-21T14:13:04;12.10;99.90
18207;DHT22;9229;52.354;20.886;2023-03-21T14:18:19;11.90;99.90
18207;DHT22;9229;52.354;20.886;2023-03-21T14:23:21;11.90;99.90
18207;DHT22;9229;52.354;20.886;2023-03-21T14:28:27;11.90;99.90
18207;DHT22;9229;52.354;20.886;2023-03-21T14:33:35;12.10;99.90
18207;DHT22;9229;52.354;20.886;2023-03-21T14:38:39;12.20;99.90
18207;DHT22;9229;52.354;20.886;2023-03-21T14:43:44;12.20;99.90
18207;DHT22;9229;52.354;20.886;2023-03-21T14:48:46;12.10;99.90
18207;DHT22;9229;52.354;20.886;2023-03-21T14:53:48;11.90;99.90
18207;DHT22;9229;52.354;20.886;2023-03-21T14:58:53;11.80;99.90
18207;DHT22;9229;52.354;20.886;2023-03-21T15:03:56;11.50;99.90
18207;DHT22;9229;52.354;20.886;2023-03-21T15:09:00;11.40;99.90
18207;DHT22;9229;52.354;20.886;2023-03-21T15:14:07;11.30;99.90
18207;DHT22;9229;52.354;20.886;2023-03-21T15:19:15;11.30;99.90
18207;DHT22;9229;52.354;20.886;2023-03-21T15:24:20;11.30;99.90
18207;DHT22;9229;52.354;20.886;2023-03-21T15:29:27;11.40;99.90
18207;DHT22;9229;52.354;20.886;2023-03-21T15:34:29;11.30;99.90
18207;DHT22;9229;52.354;20.886;2023-03-21T15:39:32;11.40;99.90
18207;DHT22;9229;52.354;20.886;2023-03-21T15:44:36;11.40;99.90
18207;DHT22;9229;52.354;20.886;2023-03-21T15:49:39;11.30;99.90
18207;DHT22;9229;52.354;20.886;2023-03-21T15:54:44;11.20;99.90
18207;DHT22;9229;52.354;20.886;2023-03-21T15:59:54;11.00;99.90
18207;DHT22;9229;52.354;20.886;2023-03-21T16:04:58;10.90;99.90
18207;DHT22;9229;52.354;20.886;2023-03-21T16:10:06;10.90;99.90
18207;DHT22;9229;52.354;20.886;2023-03-21T16:15:19;10.70;99.90
18207;DHT22;9229;52.354;20.886;2023-03-21T16:20:24;10.60;99.90
18207;DHT22;9229;52.354;20.886;2023-03-21T16:25:28;10.40;99.90
18207;DHT22;9229;52.354;20.886;2023-03-21T16:30:32;10.20;99.90
18207;DHT22;9229;52.354;20.886;2023-03-21T16:35:38;10.10;99.90
18207;DHT22;9229;52.354;20.886;2023-03-21T16:40:41;9.90;99.90
18207;DHT22;9229;52.354;20.886;2023-03-21T16:45:46;9.80;99.90
18207;DHT22;9229;52.354;20.886;2023-03-21T16:50:48;9.60;99.90
18207;DHT22;9229;52.354;20.886;2023-03-21T16:55:50;9.40;99.90
18207;DHT22;9229;52.354;20.886;2023-03-21T17:00:54;9.10;99.90
18207;DHT22;9229;52.354;20.886;2023-03-21T17:05:56;8.90;99.90
18207;DHT22;9229;52.354;20.886;2023-03-21T17:11:04;8.70;99.90
18207;DHT22;9229;52.354;20.886;2023-03-21T17:16:11;8.40;99.90
18207;DHT22;9229;52.354;20.886;2023-03-21T17:21:17;8.20;99.90
18207;DHT22;9229;52.354;20.886;2023-03-21T17:26:24;8.00;99.90
18207;DHT22;9229;52.354;20.886;2023-03-21T17:31:32;7.80;99.90
18207;DHT22;9229;52.354;20.886;2023-03-21T17:36:36;7.50;99.90
18207;DHT22;9229;52.354;20.886;2023-03-21T17:41:38;7.30;99.90
18207;DHT22;9229;52.354;20.886;2023-03-21T17:46:42;7.10;99.90
18207;DHT22;9229;52.354;20.886;2023-03-21T17:51:44;7.00;99.90
18207;DHT22;9229;52.354;20.886;2023-03-21T17:56:47;6.90;99.90
18207;DHT22;9229;52.354;20.886;2023-03-21T18:01:52;6.70;99.90
18207;DHT22;9229;52.354;20.886;2023-03-21T18:06:55;6.50;99.90
18207;DHT22;9229;52.354;20.886;2023-03-21T18:11:59;6.40;99.90
18207;DHT22;9229;52.354;20.886;2023-03-21T18:17:03;6.30;99.90
18207;DHT22;9229;52.354;20.886;2023-03-21T18:22:05;6.20;99.90
18207;DHT22;9229;52.354;20.886;2023-03-21T18:27:07;6.10;99.90
18207;DHT22;9229;52.354;20.886;2023-03-21T18:32:11;6.00;99.90
18207;DHT22;9229;52.354;20.886;2023-03-21T18:37:13;6.00;99.90
18207;DHT22;9229;52.354;20.886;2023-03-21T18:42:19;6.00;99.90
18207;DHT22;9229;52.354;20.886;2023-03-21T18:47:25;6.00;99.90
18207;DHT22;9229;52.354;20.886;2023-03-21T18:52:28;6.00;99.90
18207;DHT22;9229;52.354;20.886;2023-03-21T18:57:30;6.00;99.90
18207;DHT22;9229;52.354;20.886;2023-03-21T19:02:34;6.00;99.90
18207;DHT22;9229;52.354;20.886;2023-03-21T19:07:39;6.10;99.90
18207;DHT22;9229;52.354;20.886;2023-03-21T19:12:41;6.10;99.90
18207;DHT22;9229;52.354;20.886;2023-03-21T19:17:44;6.10;99.90
18207;DHT22;9229;52.354;20.886;2023-03-21T19:22:47;6.00;99.90
18207;DHT22;9229;52.354;20.886;2023-03-21T19:27:50;5.90;99.90
18207;DHT22;9229;52.354;20.886;2023-03-21T19:32:54;5.90;99.90
18207;DHT22;9229;52.354;20.886;2023-03-21T19:38:00;5.80;99.90
18207;DHT22;9229;52.354;20.886;2023-03-21T19:43:02;5.80;99.90
18207;DHT22;9229;52.354;20.886;2023-03-21T19:48:12;5.80;99.90
18207;DHT22;9229;52.354;20.886;2023-03-21T19:53:15;5.80;99.90
18207;DHT22;9229;52.354;20.886;2023-03-21T19:58:17;5.90;99.90
18207;DHT22;9229;52.354;20.886;2023-03-21T20:03:24;5.90;99.90
18207;DHT22;9229;52.354;20.886;2023-03-21T20:08:28;5.90;99.90
18207;DHT22;9229;52.354;20.886;2023-03-21T20:13:31;5.90;99.90
18207;DHT22;9229;52.354;20.886;2023-03-21T20:18:35;6.00;99.90
18207;DHT22;9229;52.354;20.886;2023-03-21T20:23:38;6.00;99.90
18207;DHT22;9229;52.354;20.886;2023-03-21T20:28:40;6.00;99.90
18207;DHT22;9229;52.354;20.886;2023-03-21T20:33:44;6.10;99.90
18207;DHT22;9229;52.354;20.886;2023-03-21T20:38:50;6.00;99.90
18207;DHT22;9229;52.354;20.886;2023-03-21T20:43:52;6.00;99.90
18207;DHT22;9229;52.354;20.886;2023-03-21T20:48:56;5.90;99.90
18207;DHT22;9229;52.354;20.886;2023-03-21T20:53:59;5.80;99.90
18207;DHT22;9229;52.354;20.886;2023-03-21T20:59:11;5.60;99.90
18207;DHT22;9229;52.354;20.886;2023-03-21T21:04:14;5.40;99.90
18207;DHT22;9229;52.354;20.886;2023-03-21T21:09:20;5.30;99.90
18207;DHT22;9229;52.354;20.886;2023-03-21T21:14:23;5.20;99.90
18207;DHT22;9229;52.354;20.886;2023-03-21T21:19:27;5.00;99.90
18207;DHT22;9229;52.354;20.886;2023-03-21T21:24:29;4.90;99.90
18207;DHT22;9229;52.354;20.886;2023-03-21T21:29:32;4.80;99.90
18207;DHT22;9229;52.354;20.886;2023-03-21T21:34:35;4.70;99.90
18207;DHT22;9229;52.354;20.886;2023-03-21T21:39:37;4.60;99.90
18207;DHT22;9229;52.354;20.886;2023-03-21T21:44:42;4.50;99.90
18207;DHT22;9229;52.354;20.886;2023-03-21T21:49:48;4.40;99.90
18207;DHT22;9229;52.354;20.886;2023-03-21T21:54:50;4.30;99.90
18207;DHT22;9229;52.354;20.886;2023-03-21T21:59:53;4.10;99.90
18207;DHT22;9229;52.354;20.886;2023-03-21T22:04:56;4.00;99.90
18207;DHT22;9229;52.354;20.886;2023-03-21T22:09:58;3.90;99.90
18207;DHT22;9229;52.354;20.886;2023-03-21T22:15:01;3.80;99.90
18207;DHT22;9229;52.354;20.886;2023-03-21T22:20:06;3.70;99.90
18207;DHT22;9229;52.354;20.886;2023-03-21T22:25:11;3.60;99.90
18207;DHT22;9229;52.354;20.886;2023-03-21T22:30:14;3.50;99.90
18207;DHT22;9229;52.354;20.886;2023-03-21T22:35:20;3.50;99.90
18207;DHT22;9229;52.354;20.886;2023-03-21T22:40:22;3.40;99.90
18207;DHT22;9229;52.354;20.886;2023-03-21T22:45:25;3.30;99.90
18207;DHT22;9229;52.354;20.886;2023-03-21T22:50:30;3.20;99.90
18207;DHT22;9229;52.354;20.886;2023-03-21T22:55:32;3.10;99.90
18207;DHT22;9229;52.354;20.886;2023-03-21T23:00:34;3.00;99.90
18207;DHT22;9229;52.354;20.886;2023-03-21T23:05:38;2.90;99.90
18207;DHT22;9229;52.354;20.886;2023-03-21T23:10:41;2.90;99.90
18207;DHT22;9229;52.354;20.886;2023-03-21T23:15:45;2.80;99.90
18207;DHT22;9229;52.354;20.886;2023-03-21T23:20:49;2.70;99.90
18207;DHT22;9229;52.354;20.886;2023-03-21T23:25:55;2.60;99.90
18207;DHT22;9229;52.354;20.886;2023-03-21T23:30:59;2.60;99.90
18207;DHT22;9229;52.354;20.886;2023-03-21T23:36:10;2.50;99.90
18207;DHT22;9229;52.354;20.886;2023-03-21T23:41:16;2.40;99.90
18207;DHT22;9229;52.354;20.886;2023-03-21T23:46:19;2.40;99.90
18207;DHT22;9229;52.354;20.886;2023-03-21T23:51:24;2.30;99.90
18207;DHT22;9229;52.354;20.886;2023-03-21T23:56:27;2.20;99.90
